createdAt,value
2022-11-06T00:01:45.870Z,15.30
2022-11-06T00:04:55.840Z,13.60
2022-11-06T00:08:02.770Z,12.70
2022-11-06T00:11:09.864Z,14.20
2022-11-06T00:14:19.852Z,15.30
2022-11-06T00:17:26.871Z,14.30
2022-11-06T00:20:36.861Z,14.90
2022-11-06T00:23:43.872Z,15.00
2022-11-06T00:26:54.422Z,14.20
2022-11-06T00:30:01.902Z,14.40
2022-11-06T00:33:11.882Z,14.60
2022-11-06T00:36:21.900Z,13.50
2022-11-06T00:39:28.915Z,13.90
2022-11-06T00:42:38.929Z,15.50
2022-11-06T00:45:48.869Z,16.80
2022-11-06T00:48:55.950Z,15.00
2022-11-06T00:52:02.975Z,14.80
2022-11-06T00:55:10.147Z,12.40
2022-11-06T00:58:18.079Z,11.90
2022-11-06T01:01:28.162Z,14.30
2022-11-06T01:04:35.964Z,15.50
2022-11-06T01:07:46.064Z,15.00
2022-11-06T01:10:56.544Z,14.80
2022-11-06T01:14:04.206Z,15.90
2022-11-06T01:17:14.009Z,16.30
2022-11-06T01:20:20.996Z,14.80
2022-11-06T01:23:28.000Z,15.70
2022-11-06T01:26:42.653Z,15.20
2022-11-06T01:29:59.037Z,14.70
2022-11-06T01:33:09.057Z,17.30
2022-11-06T01:36:19.140Z,14.30
2022-11-06T01:39:29.051Z,14.90
2022-11-06T01:42:36.062Z,16.40
2022-11-06T01:45:43.069Z,17.40
2022-11-06T01:48:50.080Z,15.50
2022-11-06T01:51:57.067Z,15.50
2022-11-06T01:55:07.157Z,14.80
2022-11-06T01:58:14.432Z,14.30
2022-11-06T02:01:22.288Z,13.90
2022-11-06T02:04:32.117Z,14.60
2022-11-06T02:07:39.130Z,13.40
2022-11-06T02:10:49.146Z,13.80
2022-11-06T02:13:56.178Z,12.00
2022-11-06T02:17:06.160Z,13.50
2022-11-06T02:20:13.114Z,13.70
2022-11-06T02:23:20.162Z,12.20
2022-11-06T02:26:27.185Z,11.80
2022-11-06T02:29:34.237Z,12.30
2022-11-06T02:32:41.189Z,12.40
2022-11-06T02:35:48.196Z,12.50
2022-11-06T02:38:55.203Z,12.30
2022-11-06T02:42:02.325Z,12.10
2022-11-06T02:45:12.198Z,12.40
2022-11-06T02:48:19.225Z,11.60
2022-11-06T02:51:26.219Z,11.90
2022-11-06T02:54:33.261Z,11.10
2022-11-06T02:57:40.250Z,13.10
2022-11-06T03:00:47.327Z,13.30
2022-11-06T03:03:57.256Z,13.20
2022-11-06T03:07:04.276Z,16.20
2022-11-06T03:10:11.282Z,14.00
2022-11-06T03:13:18.292Z,12.20
2022-11-06T03:16:25.406Z,13.70
2022-11-06T03:19:35.319Z,13.80
2022-11-06T03:22:42.309Z,15.30
2022-11-06T03:25:49.345Z,14.40
2022-11-06T03:28:56.410Z,13.60
2022-11-06T03:32:06.341Z,14.50
2022-11-06T03:35:13.360Z,15.50
2022-11-06T03:38:20.365Z,15.10
2022-11-06T03:41:27.489Z,13.60
2022-11-06T03:44:37.990Z,15.30
2022-11-06T03:47:48.378Z,14.30
2022-11-06T03:50:55.411Z,15.70
2022-11-06T03:54:02.393Z,15.10
2022-11-06T03:57:09.391Z,14.40
2022-11-06T04:00:16.420Z,14.20
2022-11-06T04:03:23.351Z,14.60
2022-11-06T04:06:30.385Z,13.20
2022-11-06T04:09:37.419Z,12.80
2022-11-06T04:12:47.516Z,14.30
2022-11-06T04:16:00.501Z,14.10
2022-11-06T04:19:07.428Z,15.00
2022-11-06T04:22:14.516Z,14.70
2022-11-06T04:25:21.461Z,15.20
2022-11-06T04:28:28.492Z,14.80
2022-11-06T04:31:35.494Z,15.30
2022-11-06T04:34:45.476Z,14.90
2022-11-06T04:37:52.507Z,12.60
2022-11-06T04:40:59.621Z,13.80
2022-11-06T04:44:09.545Z,12.80
2022-11-06T04:47:16.552Z,15.10
2022-11-06T04:50:23.537Z,14.20
2022-11-06T04:53:30.536Z,13.50
2022-11-06T04:56:45.786Z,13.10
2022-11-06T04:59:53.591Z,14.70
2022-11-06T05:03:00.539Z,13.60
2022-11-06T05:06:07.572Z,14.50
2022-11-06T05:09:14.606Z,14.60
2022-11-06T05:12:24.713Z,15.30
2022-11-06T05:15:34.743Z,14.80
2022-11-06T05:18:44.606Z,13.30
2022-11-06T05:21:51.700Z,13.00
2022-11-06T05:25:04.629Z,13.90
2022-11-06T05:28:11.911Z,15.20
2022-11-06T05:31:20.689Z,13.90
2022-11-06T05:34:27.667Z,13.80
2022-11-06T05:37:37.669Z,13.00
2022-11-06T05:40:47.848Z,13.20
2022-11-06T05:43:55.688Z,13.20
2022-11-06T05:47:05.672Z,11.50
2022-11-06T05:50:12.703Z,13.10
2022-11-06T05:53:19.790Z,12.90
2022-11-06T05:56:29.744Z,14.00
2022-11-06T05:59:36.694Z,12.00
2022-11-06T06:02:43.915Z,12.30
2022-11-06T06:05:51.698Z,13.10
2022-11-06T06:08:58.805Z,13.20
2022-11-06T06:12:08.719Z,11.50
2022-11-06T06:15:15.951Z,12.30
2022-11-06T06:18:23.798Z,12.90
2022-11-06T06:21:30.811Z,12.90
2022-11-06T06:24:40.814Z,13.00
2022-11-06T06:27:47.786Z,11.70
2022-11-06T06:31:01.513Z,11.60
2022-11-06T06:34:09.862Z,11.80
2022-11-06T06:37:20.371Z,12.20
2022-11-06T06:40:27.800Z,13.00
2022-11-06T06:43:34.896Z,10.80
2022-11-06T06:46:41.841Z,10.10
2022-11-06T06:49:48.815Z,9.90
2022-11-06T06:52:55.851Z,11.90
2022-11-06T06:56:05.857Z,11.60
2022-11-06T06:59:12.839Z,10.00
2022-11-06T07:02:19.917Z,10.20
2022-11-06T07:05:29.858Z,10.40
2022-11-06T07:08:39.874Z,10.40
2022-11-06T07:11:46.934Z,8.90
2022-11-06T07:14:56.924Z,10.00
2022-11-06T07:18:03.917Z,11.00
2022-11-06T07:21:10.852Z,10.70
2022-11-06T07:24:20.951Z,10.40
2022-11-06T07:27:27.955Z,10.80
2022-11-06T07:30:34.933Z,11.80
2022-11-06T07:33:44.952Z,12.30
2022-11-06T07:36:54.106Z,10.70
2022-11-06T07:40:03.981Z,9.10
2022-11-06T07:43:10.972Z,10.50
2022-11-06T07:46:20.959Z,13.00
2022-11-06T07:49:27.987Z,12.60
2022-11-06T07:52:35.032Z,12.00
2022-11-06T07:55:45.028Z,12.10
2022-11-06T07:58:52.066Z,12.00
2022-11-06T08:02:02.284Z,11.10
2022-11-06T08:05:10.078Z,12.00
2022-11-06T08:08:20.034Z,10.70
2022-11-06T08:11:27.056Z,10.60
2022-11-06T08:14:38.722Z,9.50
2022-11-06T08:17:51.053Z,10.30
2022-11-06T08:20:58.063Z,12.20
2022-11-06T08:24:05.080Z,11.10
2022-11-06T08:27:12.113Z,10.40
2022-11-06T08:30:19.096Z,11.70
2022-11-06T08:33:26.107Z,11.70
2022-11-06T08:36:36.135Z,11.40
2022-11-06T08:39:43.127Z,11.10
2022-11-06T08:42:50.095Z,12.90
2022-11-06T08:46:00.114Z,11.70
2022-11-06T08:49:08.113Z,11.80
2022-11-06T08:52:15.112Z,13.30
2022-11-06T08:55:22.191Z,10.80
2022-11-06T08:58:32.207Z,9.40
2022-11-06T09:01:39.303Z,11.20
2022-11-06T09:04:47.152Z,11.30
2022-11-06T09:07:54.176Z,10.70
2022-11-06T09:11:04.182Z,12.70
2022-11-06T09:14:12.154Z,11.90
2022-11-06T09:17:22.232Z,12.00
2022-11-06T09:20:29.265Z,11.60
2022-11-06T09:23:39.215Z,10.80
2022-11-06T09:26:46.204Z,12.30
2022-11-06T09:29:53.310Z,12.10
2022-11-06T09:33:00.284Z,11.60
2022-11-06T09:36:07.268Z,11.70
2022-11-06T09:39:14.253Z,12.00
2022-11-06T09:42:24.281Z,10.90
2022-11-06T09:45:31.338Z,10.70
2022-11-06T09:48:38.313Z,10.40
2022-11-06T09:51:48.321Z,11.30
2022-11-06T09:54:57.155Z,12.90
2022-11-06T09:58:05.288Z,12.70
2022-11-06T10:01:17.494Z,10.60
2022-11-06T10:04:28.358Z,12.20
2022-11-06T10:07:35.311Z,11.30
2022-11-06T10:10:42.323Z,11.60
2022-11-06T10:13:52.328Z,10.70
2022-11-06T10:16:59.395Z,11.00
2022-11-06T10:20:07.392Z,13.30
2022-11-06T10:23:17.396Z,11.80
2022-11-06T10:26:33.561Z,13.70
2022-11-06T10:29:41.496Z,11.70
2022-11-06T10:32:57.429Z,11.30
2022-11-06T10:39:23.469Z,12.80
2022-11-06T10:42:38.057Z,13.60
2022-11-06T10:45:49.411Z,13.70
2022-11-06T10:48:59.399Z,13.20
2022-11-06T10:52:09.446Z,13.50
2022-11-06T10:55:17.807Z,13.30
2022-11-06T10:58:28.467Z,14.10
2022-11-06T11:01:35.565Z,14.80
2022-11-06T11:04:45.454Z,13.50
2022-11-06T11:07:52.510Z,12.60
2022-11-06T11:11:04.905Z,12.00
2022-11-06T11:14:12.503Z,11.50
2022-11-06T11:17:19.461Z,11.80
2022-11-06T11:20:32.488Z,12.10
2022-11-06T11:23:39.608Z,13.20
2022-11-06T11:26:52.979Z,12.40
2022-11-06T11:30:00.514Z,13.10
2022-11-06T11:33:07.493Z,12.80
2022-11-06T11:36:20.522Z,12.90
2022-11-06T11:39:30.582Z,10.90
2022-11-06T11:42:40.652Z,11.90
2022-11-06T11:45:47.555Z,12.40
2022-11-06T11:48:54.605Z,13.30
2022-11-06T11:52:01.599Z,14.10
2022-11-06T11:55:11.647Z,13.70
2022-11-06T11:58:18.609Z,14.00
2022-11-06T12:01:28.600Z,13.50
2022-11-06T12:04:38.584Z,13.80
2022-11-06T12:07:46.583Z,14.40
2022-11-06T12:10:53.634Z,14.20
2022-11-06T12:14:00.661Z,14.70
2022-11-06T12:17:11.624Z,13.50
2022-11-06T12:20:18.612Z,13.70
2022-11-06T12:23:25.666Z,14.00
2022-11-06T12:26:35.721Z,15.30
2022-11-06T12:29:45.665Z,14.70
2022-11-06T12:32:52.664Z,14.30
2022-11-06T12:35:59.724Z,14.10
2022-11-06T12:39:09.682Z,13.30
2022-11-06T12:42:16.729Z,15.80
2022-11-06T12:45:23.725Z,14.90
2022-11-06T12:48:30.740Z,15.10
2022-11-06T12:51:41.728Z,14.20
2022-11-06T12:54:48.729Z,15.50
2022-11-06T12:57:58.790Z,14.10
2022-11-06T13:01:11.905Z,13.20
2022-11-06T13:04:22.777Z,16.40
2022-11-06T13:07:32.859Z,14.80
2022-11-06T13:10:43.798Z,14.20
2022-11-06T13:13:53.847Z,15.40
2022-11-06T13:17:03.775Z,15.10
2022-11-06T13:20:10.887Z,14.60
2022-11-06T13:23:20.805Z,14.10
2022-11-06T13:26:27.834Z,14.30
2022-11-06T13:29:34.825Z,14.60
2022-11-06T13:32:47.394Z,15.30
2022-11-06T13:35:58.860Z,15.00
2022-11-06T13:39:08.862Z,13.90
2022-11-06T13:42:18.834Z,13.40
2022-11-06T13:45:28.861Z,14.50
2022-11-06T13:48:42.876Z,10.50
2022-11-06T13:51:52.961Z,11.00
2022-11-06T13:55:02.881Z,11.90
2022-11-06T13:58:13.132Z,13.60
2022-11-06T14:01:20.958Z,12.70
2022-11-06T14:04:30.950Z,14.40
2022-11-06T14:07:40.927Z,14.70
2022-11-06T14:10:48.011Z,12.90
2022-11-06T14:13:57.914Z,11.10
2022-11-06T14:17:11.030Z,10.60
2022-11-06T14:20:24.035Z,10.00
2022-11-06T14:23:31.969Z,11.50
2022-11-06T14:26:41.974Z,13.10
2022-11-06T14:29:48.988Z,13.90
2022-11-06T14:32:55.917Z,13.30
2022-11-06T14:36:03.037Z,11.80
2022-11-06T14:39:12.977Z,12.60
2022-11-06T14:42:27.028Z,13.60
2022-11-06T14:45:38.012Z,11.80
2022-11-06T14:48:48.019Z,11.40
2022-11-06T14:52:00.073Z,12.20
2022-11-06T14:55:08.175Z,11.00
2022-11-06T14:58:18.075Z,9.90
2022-11-06T15:01:25.235Z,10.10
2022-11-06T15:04:33.063Z,10.90
2022-11-06T15:11:07.181Z,11.70
2022-11-06T15:14:14.044Z,11.30
2022-11-06T15:17:21.128Z,10.90
2022-11-06T15:20:37.133Z,11.10
2022-11-06T15:23:47.151Z,10.20
2022-11-06T15:26:54.113Z,11.40
2022-11-06T15:30:04.250Z,9.80
2022-11-06T15:33:14.339Z,10.80
2022-11-06T15:36:23.144Z,10.10
2022-11-06T15:39:33.172Z,11.00
2022-11-06T15:42:40.235Z,10.70
2022-11-06T15:45:47.225Z,10.00
2022-11-06T15:48:57.284Z,9.90
2022-11-06T15:52:07.117Z,13.00
2022-11-06T15:55:23.259Z,11.30
2022-11-06T15:58:31.564Z,11.80
2022-11-06T16:01:39.293Z,10.40
2022-11-06T16:04:49.201Z,10.80
2022-11-06T16:08:00.275Z,11.20
2022-11-06T16:11:13.116Z,11.20
2022-11-06T16:14:23.275Z,12.80
2022-11-06T16:17:33.320Z,12.10
2022-11-06T16:20:43.262Z,12.90
2022-11-06T16:23:50.256Z,11.40
2022-11-06T16:26:57.340Z,11.70
2022-11-06T16:30:08.276Z,11.50
2022-11-06T16:33:15.519Z,11.40
2022-11-06T16:36:23.291Z,11.40
2022-11-06T16:39:47.747Z,10.30
2022-11-06T16:42:59.299Z,9.70
2022-11-06T16:46:07.330Z,10.10
2022-11-06T16:49:14.352Z,9.70
2022-11-06T16:52:24.342Z,9.10
2022-11-06T16:55:31.344Z,10.60
2022-11-06T16:58:38.346Z,10.30
2022-11-06T17:01:48.529Z,9.20
2022-11-06T17:04:56.364Z,8.70
2022-11-06T17:08:09.411Z,9.70
2022-11-06T17:11:19.389Z,10.40
2022-11-06T17:14:29.402Z,8.00
2022-11-06T17:17:42.394Z,7.90
2022-11-06T17:20:49.363Z,7.40
2022-11-06T17:24:07.651Z,8.10
2022-11-06T17:27:26.441Z,7.90
2022-11-06T17:30:33.451Z,7.20
2022-11-06T17:33:43.419Z,8.00
2022-11-06T17:36:53.430Z,8.10
2022-11-06T17:40:04.389Z,6.70
2022-11-06T17:43:11.732Z,7.50
2022-11-06T17:46:19.534Z,8.20
2022-11-06T17:49:29.495Z,8.00
2022-11-06T17:52:39.532Z,7.40
2022-11-06T17:55:53.475Z,6.90
2022-11-06T17:59:00.559Z,8.30
2022-11-06T18:02:07.601Z,9.60
2022-11-06T18:05:15.516Z,8.10
2022-11-06T18:08:22.493Z,8.50
2022-11-06T18:11:46.539Z,8.30
2022-11-06T18:14:54.533Z,7.80
2022-11-06T18:18:04.592Z,8.10
2022-11-06T18:21:11.525Z,8.20
2022-11-06T18:24:18.559Z,7.50
2022-11-06T18:27:26.596Z,7.20
2022-11-06T18:30:33.531Z,5.90
2022-11-06T18:33:43.590Z,6.30
2022-11-06T18:36:53.583Z,7.00
2022-11-06T18:40:03.607Z,7.40
2022-11-06T18:43:13.624Z,7.00
2022-11-06T18:46:20.620Z,5.90
2022-11-06T18:49:27.648Z,5.70
2022-11-06T18:52:56.240Z,6.00
2022-11-06T18:56:07.654Z,5.80
2022-11-06T18:59:17.623Z,5.70
2022-11-06T19:02:27.837Z,5.30
2022-11-06T19:05:35.667Z,6.00
2022-11-06T19:08:42.679Z,6.30
2022-11-06T19:11:52.693Z,5.80
2022-11-06T19:14:59.673Z,6.20
2022-11-06T19:18:06.741Z,5.30
2022-11-06T19:21:16.722Z,5.70
2022-11-06T19:24:23.724Z,6.20
2022-11-06T19:27:33.704Z,6.30
2022-11-06T19:30:43.749Z,5.60
2022-11-06T19:33:50.761Z,5.20
2022-11-06T19:36:57.734Z,5.70
2022-11-06T19:40:06.351Z,5.20
2022-11-06T19:43:16.921Z,6.10
2022-11-06T19:46:29.711Z,4.70
2022-11-06T19:49:38.810Z,5.30
2022-11-06T19:52:53.368Z,5.90
2022-11-06T19:56:03.805Z,5.40
2022-11-06T19:59:13.803Z,6.10
2022-11-06T20:02:23.908Z,4.80
2022-11-06T20:05:31.816Z,4.80
2022-11-06T20:08:38.948Z,5.50
2022-11-06T20:11:46.807Z,5.40
2022-11-06T20:14:59.827Z,5.40
2022-11-06T20:18:09.869Z,4.50
2022-11-06T20:21:19.891Z,5.40
2022-11-06T20:24:29.875Z,5.10
2022-11-06T20:27:40.911Z,5.20
2022-11-06T20:30:50.977Z,5.60
2022-11-06T20:33:59.869Z,5.30
2022-11-06T20:37:10.878Z,5.10
2022-11-06T20:40:20.927Z,4.50
2022-11-06T20:43:30.893Z,5.00
2022-11-06T20:46:40.893Z,4.50
2022-11-06T20:49:47.924Z,6.00
2022-11-06T20:52:55.010Z,4.40
2022-11-06T20:56:04.917Z,4.20
2022-11-06T20:59:17.992Z,5.00
2022-11-06T21:02:28.065Z,5.10
2022-11-06T21:05:37.952Z,4.60
2022-11-06T21:08:44.947Z,5.30
2022-11-06T21:11:54.975Z,3.80
2022-11-06T21:15:05.009Z,4.30
2022-11-06T21:18:14.984Z,4.80
2022-11-06T21:21:22.031Z,4.40
2022-11-06T21:24:31.996Z,4.20
2022-11-06T21:27:42.006Z,4.00
2022-11-06T21:30:51.998Z,4.00
2022-11-06T21:33:59.023Z,4.40
2022-11-06T21:37:06.047Z,3.50
2022-11-06T21:40:13.147Z,4.80
2022-11-06T21:43:21.039Z,4.10
2022-11-06T21:46:31.047Z,3.90
2022-11-06T21:49:41.067Z,4.40
2022-11-06T21:52:48.091Z,4.10
2022-11-06T21:55:58.072Z,3.30
2022-11-06T21:59:05.165Z,3.50
2022-11-06T22:02:18.291Z,3.90
2022-11-06T22:05:26.123Z,4.00
2022-11-06T22:08:36.103Z,4.00
2022-11-06T22:11:43.124Z,3.70
2022-11-06T22:14:50.076Z,3.50
2022-11-06T22:17:57.138Z,3.30
2022-11-06T22:21:07.143Z,3.90
2022-11-06T22:24:14.170Z,4.00
2022-11-06T22:27:34.636Z,3.80
2022-11-06T22:30:51.189Z,3.80
2022-11-06T22:34:01.124Z,3.50
2022-11-06T22:37:09.179Z,3.90
2022-11-06T22:40:16.200Z,4.40
2022-11-06T22:43:26.229Z,3.90
2022-11-06T22:46:35.156Z,3.90
2022-11-06T22:49:45.300Z,4.40
2022-11-06T22:52:55.215Z,3.60
2022-11-06T22:56:05.246Z,3.90
2022-11-06T22:59:12.243Z,3.80
2022-11-06T23:02:19.378Z,4.00
2022-11-06T23:05:29.259Z,3.80
2022-11-06T23:08:44.199Z,3.00
2022-11-06T23:11:54.276Z,3.90
2022-11-06T23:15:04.285Z,4.00
2022-11-06T23:18:14.277Z,4.10
2022-11-06T23:21:24.292Z,3.60
2022-11-06T23:24:34.302Z,4.00
2022-11-06T23:27:48.660Z,3.80
2022-11-06T23:30:57.324Z,4.40
2022-11-06T23:34:04.330Z,4.50
2022-11-06T23:37:11.434Z,3.80
2022-11-06T23:40:21.337Z,3.80
2022-11-06T23:43:28.354Z,4.20
2022-11-06T23:46:35.333Z,3.70
2022-11-06T23:49:42.427Z,3.50
2022-11-06T23:52:52.451Z,3.60
2022-11-06T23:55:59.404Z,3.90
2022-11-06T23:59:06.338Z,4.10
